Time;durP1;ratioP1;P1;durP2;ratioP2;P2;SDS_P1;SDS_P2;PMS_P1;PMS_P2;Temp;Humidity;BMP_temperature;BMP_pressure;BME280_temperature;BME280_humidity;BME280_pressure;Samples;Min_cycle;Max_cycle;Signal;HPM_P1;HPM_P2
2024/02/10 00:00:54;;;;;;;21.35;10.70;;;;;;;11.22;100.00;101338.78;10545885;28;20723;-78
2024/02/10 00:06:17;;;;;;;17.23;10.27;;;;;;;11.29;100.00;101346.00;10568819;28;20071;-78
2024/02/10 00:11:41;;;;;;;18.60;10.00;;;;;;;11.20;100.00;101341.41;10569017;28;20059;-79
2024/02/10 00:17:08;;;;;;;51.17;44.38;;;;;;;11.31;100.00;101342.50;10562312;28;20126;-79
2024/02/10 00:22:31;;;;;;;19.30;10.68;;;;;;;10.95;100.00;101332.03;10554188;28;20050;-79
2024/02/10 00:27:55;;;;;;;23.75;12.88;;;;;;;10.80;100.00;101334.31;10572969;28;20048;-78
2024/02/10 00:33:17;;;;;;;22.58;13.07;;;;;;;10.94;100.00;101326.69;10559002;28;20048;-79
2024/02/10 00:38:42;;;;;;;23.20;15.63;;;;;;;11.18;100.00;101320.22;10578363;28;20044;-78
2024/02/10 00:44:06;;;;;;;18.95;11.55;;;;;;;11.31;100.00;101324.00;10564325;28;20108;-78
2024/02/10 00:49:30;;;;;;;18.45;9.93;;;;;;;11.27;100.00;101321.28;10551512;28;20044;-78
2024/02/10 00:54:52;;;;;;;16.38;10.07;;;;;;;10.92;100.00;101313.44;10530269;28;20052;-78
2024/02/10 01:00:21;;;;;;;24.40;12.85;;;;;;;10.79;100.00;101321.94;10573201;28;20112;-79
2024/02/10 01:05:44;;;;;;;21.13;12.60;;;;;;;10.79;100.00;101317.56;10551171;28;20063;-79
2024/02/10 01:11:11;;;;;;;24.35;12.00;;;;;;;10.97;100.00;101306.53;10579093;28;20047;-78
2024/02/10 01:16:36;;;;;;;24.23;16.08;;;;;;;11.21;100.00;101295.63;10554136;28;20117;-78
2024/02/10 01:21:58;;;;;;;24.85;10.77;;;;;;;11.23;100.00;101301.81;10578301;28;20130;-78
2024/02/10 01:27:21;;;;;;;17.92;9.68;;;;;;;11.45;100.00;101290.84;10571338;28;20052;-78
2024/02/10 01:32:45;;;;;;;19.40;11.00;;;;;;;11.52;100.00;101291.84;10568458;28;20044;-78
2024/02/10 01:38:09;;;;;;;19.88;8.80;;;;;;;11.75;100.00;101284.41;10563708;28;20525;-78
2024/02/10 01:43:38;;;;;;;20.35;8.80;;;;;;;11.82;100.00;101286.28;10575030;27;20130;-79
2024/02/10 01:49:02;;;;;;;19.92;8.77;;;;;;;11.84;100.00;101284.56;10569882;28;20047;-78
2024/02/10 01:54:25;;;;;;;19.75;8.77;;;;;;;11.90;100.00;101284.69;10541629;28;20484;-78
2024/02/10 01:59:49;;;;;;;22.13;7.97;;;;;;;12.07;100.00;101271.78;10559705;28;20080;-79
2024/02/10 02:05:13;;;;;;;15.57;8.35;;;;;;;12.08;100.00;101276.22;10519252;28;20167;-79
2024/02/10 02:10:36;;;;;;;16.60;8.45;;;;;;;12.20;100.00;101276.41;10561822;28;20047;-79
2024/02/10 02:16:00;;;;;;;19.15;9.65;;;;;;;12.26;100.00;101265.94;10573814;27;20063;-78
2024/02/10 02:21:27;;;;;;;19.65;8.23;;;;;;;12.48;100.00;101273.34;10618674;27;20436;-78
2024/02/10 02:26:52;;;;;;;17.58;9.23;;;;;;;12.52;100.00;101282.25;10618171;27;20035;-78
2024/02/10 02:32:14;;;;;;;17.33;7.82;;;;;;;12.32;100.00;101279.28;10615794;27;20074;-78
2024/02/10 02:37:37;;;;;;;19.70;8.13;;;;;;;12.21;100.00;101280.81;10604083;27;20337;-79
2024/02/10 02:43:02;;;;;;;20.52;9.10;;;;;;;12.21;100.00;101281.72;10588681;27;20399;-78
2024/02/10 02:48:25;;;;;;;23.58;8.23;;;;;;;12.33;100.00;101294.28;10604871;27;20050;-78
2024/02/10 02:53:50;;;;;;;17.27;7.65;;;;;;;12.84;100.00;101293.31;10603652;27;20047;-79
2024/02/10 02:59:15;;;;;;;17.17;8.05;;;;;;;13.17;100.00;101296.50;10603655;27;20425;-78
2024/02/10 03:04:39;;;;;;;20.42;7.72;;;;;;;13.15;100.00;101298.22;10586183;27;20455;-79
2024/02/10 03:10:01;;;;;;;15.90;7.45;;;;;;;13.32;100.00;101293.16;10600545;27;20425;-78
2024/02/10 03:15:27;;;;;;;17.27;7.53;;;;;;;13.36;100.00;101290.56;10597286;27;20411;-80
2024/02/10 03:20:50;;;;;;;15.68;7.05;;;;;;;13.37;100.00;101295.00;10591959;27;20047;-78
2024/02/10 03:26:12;;;;;;;17.35;7.70;;;;;;;13.47;100.00;101294.22;10596875;27;20131;-78
2024/02/10 03:31:37;;;;;;;16.50;7.55;;;;;;;13.50;100.00;101304.00;10586723;27;20042;-78
2024/02/10 03:37:00;;;;;;;17.70;7.90;;;;;;;13.45;100.00;101309.25;10574758;27;20100;-78
2024/02/10 03:42:23;;;;;;;12.82;6.20;;;;;;;13.48;100.00;101314.56;10577556;27;20043;-78
2024/02/10 03:47:50;;;;;;;20.95;7.45;;;;;;;13.40;100.00;101318.88;10590218;28;20047;-78
2024/02/10 03:53:13;;;;;;;22.63;8.80;;;;;;;13.52;100.00;101315.53;10582595;28;20047;-78
2024/02/10 03:58:40;;;;;;;21.30;7.57;;;;;;;13.48;100.00;101319.88;10577609;28;20372;-78
2024/02/10 04:04:05;;;;;;;18.87;7.33;;;;;;;13.51;100.00;101319.03;10563538;28;20100;-78
2024/02/10 04:09:28;;;;;;;19.92;7.28;;;;;;;13.51;100.00;101316.38;10568078;28;20068;-78
2024/02/10 04:14:52;;;;;;;13.05;6.40;;;;;;;13.62;100.00;101329.78;10604776;27;20047;-78
2024/02/10 04:20:19;;;;;;;16.58;6.80;;;;;;;13.71;100.00;101336.09;10613420;27;20049;-78
2024/02/10 04:25:42;;;;;;;16.05;6.90;;;;;;;13.77;100.00;101340.59;10624412;27;20642;-78
2024/02/10 04:31:05;;;;;;;16.58;6.13;;;;;;;13.80;100.00;101349.47;10630674;27;20043;-78
2024/02/10 04:36:31;;;;;;;18.35;6.80;;;;;;;13.83;100.00;101357.47;10618739;27;20039;-78
2024/02/10 04:41:53;;;;;;;13.57;6.35;;;;;;;13.86;100.00;101357.50;10620108;27;20564;-79
2024/02/10 04:47:16;;;;;;;14.52;6.10;;;;;;;13.92;100.00;101370.81;10609046;27;20119;-78
2024/02/10 04:52:40;;;;;;;13.48;6.05;;;;;;;13.91;100.00;101379.66;10640378;27;20482;-79
2024/02/10 04:58:04;;;;;;;12.02;5.40;;;;;;;13.95;100.00;101369.97;10617529;27;20539;-78
2024/02/10 05:03:27;;;;;;;19.48;5.78;;;;;;;14.00;100.00;101373.56;10600803;27;20482;-78
2024/02/10 05:08:51;;;;;;;11.05;4.75;;;;;;;14.07;100.00;101383.41;10609961;27;20516;-79
2024/02/10 05:14:13;;;;;;;16.48;5.63;;;;;;;14.04;100.00;101391.34;10597948;27;20047;-78
2024/02/10 05:19:36;;;;;;;16.38;5.88;;;;;;;14.01;100.00;101401.91;10584957;27;20105;-79
2024/02/10 05:25:00;;;;;;;12.43;5.22;;;;;;;14.20;100.00;101400.34;10605309;27;20051;-79
2024/02/10 05:30:24;;;;;;;14.02;4.97;;;;;;;14.20;100.00;101401.25;10571794;27;20047;-79
2024/02/10 05:35:47;;;;;;;16.08;5.03;;;;;;;14.21;100.00;101411.00;10590213;27;20039;-79
2024/02/10 05:41:11;;;;;;;15.18;5.13;;;;;;;14.25;100.00;101427.84;10592011;27;20071;-79
2024/02/10 05:46:33;;;;;;;13.55;4.85;;;;;;;14.36;100.00;101429.75;10548385;27;20488;-79
2024/02/10 05:51:56;;;;;;;22.77;9.77;;;;;;;14.12;100.00;101432.13;10579049;27;20473;-78
2024/02/10 05:57:23;;;;;;;13.80;5.82;;;;;;;16.05;100.00;101420.41;10588726;27;20389;-79
2024/02/10 06:02:47;;;;;;;11.85;4.22;;;;;;;18.53;100.00;101421.03;10563538;27;20054;-78
2024/02/10 06:08:12;;;;;;;11.20;4.03;;;;;;;20.41;100.00;101436.19;10563269;27;20071;-79
2024/02/10 06:13:36;;;;;;;11.80;4.97;;;;;;;21.51;98.90;101438.00;10608894;27;20134;-79
2024/02/10 06:18:59;;;;;;;8.25;3.53;;;;;;;22.29;87.74;101446.28;10642340;27;20129;-79
2024/02/10 06:24:24;;;;;;;9.38;3.92;;;;;;;23.29;78.78;101443.91;10632193;27;20059;-79
2024/02/10 06:29:49;;;;;;;18.98;4.60;;;;;;;23.62;68.36;101446.69;10604649;27;20053;-79
2024/02/10 06:35:12;;;;;;;11.45;4.43;;;;;;;22.75;72.58;101440.78;10601155;27;20493;-79
2024/02/10 06:40:35;;;;;;;8.25;3.95;;;;;;;23.22;65.86;101428.84;10610599;27;20579;-79
2024/02/10 06:46:00;;;;;;;11.93;4.63;;;;;;;23.42;63.87;101434.59;10604189;27;20440;-80
2024/02/10 06:51:22;;;;;;;10.90;4.57;;;;;;;23.37;58.02;101433.78;10627637;27;20061;-79
2024/02/10 06:56:45;;;;;;;9.05;3.88;;;;;;;23.23;58.97;101444.09;10618580;27;20042;-79
2024/02/10 07:02:11;;;;;;;8.60;4.35;;;;;;;24.30;52.88;101454.63;10615920;27;20051;-80
2024/02/10 07:07:34;;;;;;;12.10;4.32;;;;;;;23.61;54.33;101453.88;10629194;27;20046;-80
2024/02/10 07:12:56;;;;;;;8.30;4.18;;;;;;;23.88;53.25;101443.25;10616694;27;20043;-80
2024/02/10 07:18:20;;;;;;;6.78;3.65;;;;;;;24.20;50.53;101454.03;10576960;27;20047;-80
2024/02/10 07:23:45;;;;;;;10.00;3.80;;;;;;;24.53;48.30;101447.59;10571803;27;20055;-80
2024/02/10 07:29:09;;;;;;;8.30;3.67;;;;;;;24.59;48.42;101431.22;10576407;27;20051;-80
2024/02/10 07:34:33;;;;;;;10.50;3.60;;;;;;;24.90;47.16;101446.47;10572809;27;20105;-80
2024/02/10 07:39:56;;;;;;;9.18;3.67;;;;;;;25.33;44.78;101449.50;10573928;27;20047;-80
2024/02/10 07:45:19;;;;;;;9.68;3.83;;;;;;;25.72;44.14;101446.38;10566323;27;20075;-79
2024/02/10 07:50:43;;;;;;;9.05;3.50;;;;;;;25.66;43.06;101446.59;10567665;28;20051;-81
2024/02/10 07:56:06;;;;;;;8.07;3.58;;;;;;;25.18;44.42;101441.91;10562560;28;20124;-77
2024/02/10 08:01:29;;;;;;;7.75;3.42;;;;;;;25.39;43.66;101445.69;10570738;28;20050;-77
2024/02/10 08:06:53;;;;;;;10.68;4.30;;;;;;;25.98;42.82;101450.81;10532344;28;20043;-76
2024/02/10 08:12:21;;;;;;;14.18;4.65;;;;;;;26.25;42.31;101446.22;10580705;27;20101;-75
2024/02/10 08:17:44;;;;;;;9.43;4.15;;;;;;;25.99;42.41;101453.44;10590523;27;20627;-77
2024/02/10 08:23:14;;;;;;;10.85;3.63;;;;;;;26.50;41.84;101463.28;10593602;27;20051;-77
2024/02/10 08:28:37;;;;;;;8.30;4.05;;;;;;;26.70;41.03;101466.09;10586374;27;20063;-75
2024/02/10 08:33:59;;;;;;;11.10;3.90;;;;;;;26.32;41.05;101466.72;10592589;27;20047;-76
2024/02/10 08:39:23;;;;;;;6.28;3.00;;;;;;;25.95;41.95;101476.16;10573826;27;20051;-76
2024/02/10 08:44:45;;;;;;;10.60;3.53;;;;;;;25.73;42.64;101467.06;10607226;27;20044;-76
2024/02/10 08:50:09;;;;;;;8.55;4.28;;;;;;;26.68;41.44;101476.09;10593357;27;20081;-79
2024/02/10 08:55:33;;;;;;;11.40;4.30;;;;;;;26.90;39.83;101484.28;10607527;27;20376;-80
2024/02/10 09:00:57;;;;;;;11.15;4.35;;;;;;;26.77;40.19;101481.16;10585573;27;20039;-81
2024/02/10 09:06:21;;;;;;;7.88;3.88;;;;;;;27.41;39.64;101459.53;10550159;27;20168;-80
2024/02/10 09:11:47;;;;;;;11.52;4.40;;;;;;;27.35;38.84;101457.09;10573462;27;20062;-82
2024/02/10 09:17:10;;;;;;;9.90;4.47;;;;;;;27.50;38.59;101456.44;10552357;28;20052;-78
2024/02/10 09:22:32;;;;;;;11.80;3.90;;;;;;;28.66;37.20;101465.59;10582890;27;20093;-78
2024/02/10 09:27:59;;;;;;;7.40;3.80;;;;;;;28.73;36.28;101460.75;10567527;27;20043;-79
2024/02/10 09:33:24;;;;;;;12.55;5.05;;;;;;;29.18;35.72;101469.38;10578561;27;20066;-80
2024/02/10 09:38:47;;;;;;;8.25;3.95;;;;;;;28.57;36.32;101462.44;10594034;27;20382;-80
2024/02/10 09:44:12;;;;;;;7.15;3.63;;;;;;;28.85;35.72;101462.91;10587673;27;20122;-80
2024/02/10 09:49:34;;;;;;;6.55;3.95;;;;;;;28.39;36.49;101473.22;10578454;27;20061;-80
2024/02/10 09:54:57;;;;;;;10.02;4.57;;;;;;;27.34;38.13;101464.34;10595074;27;20051;-82
2024/02/10 10:00:21;;;;;;;7.80;4.05;;;;;;;27.64;37.34;101458.53;10549522;28;20139;-83
2024/02/10 10:05:45;;;;;;;8.05;4.70;;;;;;;27.45;37.96;101453.00;10582745;27;20082;-81
2024/02/10 10:11:08;;;;;;;5.60;3.28;;;;;;;27.91;37.65;101457.31;10544297;28;20127;-81
2024/02/10 10:16:32;;;;;;;10.50;4.07;;;;;;;27.19;38.77;101450.53;10570905;27;20054;-80
2024/02/10 10:21:56;;;;;;;10.43;4.43;;;;;;;26.98;39.10;101436.94;10565890;27;20563;-81
2024/02/10 10:28:03;;;;;;;;;;;;;;;;;;;;;
2024/02/10 10:34:04;;;;;;;6.75;3.90;;;;;;;24.86;44.37;101428.56;10333096;28;20048;-81
2024/02/10 10:39:30;;;;;;;10.80;4.32;;;;;;;24.64;44.67;101431.06;10434291;28;20053;-82
2024/02/10 10:44:54;;;;;;;8.20;3.60;;;;;;;24.84;44.66;101433.13;10418688;28;20044;-82
2024/02/10 10:50:18;;;;;;;7.80;3.55;;;;;;;25.12;44.66;101425.03;10553359;27;20070;-82
2024/02/10 10:55:44;;;;;;;10.15;4.20;;;;;;;25.47;43.44;101426.50;10589932;27;20490;-81
2024/02/10 11:01:08;;;;;;;11.55;3.88;;;;;;;25.80;42.87;101415.38;10575654;27;20135;-80
2024/02/10 11:06:35;;;;;;;9.88;3.60;;;;;;;26.26;41.70;101412.75;10603431;27;20096;-78
2024/02/10 11:11:58;;;;;;;8.77;3.53;;;;;;;25.68;42.69;101409.53;10592815;27;20047;-79
2024/02/10 11:17:20;;;;;;;9.70;3.80;;;;;;;25.29;42.74;101398.28;10586058;27;20104;-79
2024/02/10 11:22:44;;;;;;;8.43;3.88;;;;;;;24.11;45.42;101395.78;10616366;27;20045;-79
2024/02/10 11:28:07;;;;;;;7.30;3.28;;;;;;;23.64;46.84;101397.16;10589250;27;20522;-79
2024/02/10 11:33:29;;;;;;;8.90;3.75;;;;;;;22.87;49.95;101386.63;10608099;27;20047;-80
2024/02/10 11:38:54;;;;;;;6.60;3.42;;;;;;;22.81;51.22;101373.31;10595285;27;20487;-80
2024/02/10 11:44:16;;;;;;;8.93;3.22;;;;;;;22.55;52.94;101373.03;10601667;27;20492;-81
2024/02/10 11:49:39;;;;;;;6.85;3.15;;;;;;;22.18;56.91;101360.44;10602761;28;20487;-80
2024/02/10 11:55:04;;;;;;;8.27;3.42;;;;;;;21.94;57.62;101352.88;10588739;28;20047;-80
2024/02/10 12:00:28;;;;;;;6.35;3.13;;;;;;;21.55;63.72;101351.00;10587782;28;20120;-80
2024/02/10 12:05:51;;;;;;;4.60;2.55;;;;;;;21.24;65.61;101338.19;10575267;28;20036;-80
2024/02/10 12:11:16;;;;;;;7.65;3.42;;;;;;;21.02;69.24;101331.41;10573025;28;20066;-79
2024/02/10 12:16:39;;;;;;;7.60;3.70;;;;;;;20.83;70.42;101327.28;10565431;28;20048;-80
2024/02/10 12:22:05;;;;;;;6.38;2.95;;;;;;;20.61;74.63;101332.16;10517599;28;20051;-79
2024/02/10 12:27:31;;;;;;;7.18;3.38;;;;;;;20.57;77.24;101319.66;10550760;28;20167;-78
2024/02/10 12:32:54;;;;;;;9.43;3.53;;;;;;;20.70;78.16;101318.56;10544763;28;20109;-77
2024/02/10 12:38:18;;;;;;;5.53;3.20;;;;;;;20.53;79.71;101326.00;10544136;28;20044;-77
2024/02/10 12:43:43;;;;;;;8.15;3.30;;;;;;;20.56;79.47;101315.22;10558364;28;20063;-77
2024/02/10 12:49:08;;;;;;;5.43;2.85;;;;;;;20.60;78.78;101325.91;10548314;28;20040;-78
2024/02/10 12:54:30;;;;;;;8.30;3.28;;;;;;;20.60;80.07;101328.56;10572587;28;20497;-78
2024/02/10 12:59:55;;;;;;;11.75;4.47;;;;;;;20.46;80.45;101330.59;10571943;28;20054;-79
2024/02/10 13:05:19;;;;;;;8.02;3.53;;;;;;;20.42;81.45;101336.91;10552699;28;20151;-79
2024/02/10 13:10:45;;;;;;;5.95;3.20;;;;;;;20.13;86.66;101329.28;10549313;28;20403;-79
2024/02/10 13:16:10;;;;;;;8.82;3.22;;;;;;;19.93;91.03;101320.63;10565342;28;20098;-81
2024/02/10 13:21:33;;;;;;;7.55;3.38;;;;;;;19.96;91.19;101330.41;10554032;28;20051;-81
2024/02/10 13:26:55;;;;;;;5.93;3.17;;;;;;;19.78;92.03;101331.53;10566050;28;20154;-81
2024/02/10 13:32:23;;;;;;;6.55;3.33;;;;;;;19.77;90.71;101333.34;10551601;28;20040;-81
2024/02/10 14:00:29;;;;;;;7.63;3.45;;;;;;;19.03;100.00;101345.75;10548784;28;20054;-77
2024/02/10 14:06:05;;;;;;;7.07;2.70;;;;;;;18.99;100.00;101344.00;10535143;28;20051;-77
2024/02/10 14:11:32;;;;;;;10.23;3.38;;;;;;;19.01;100.00;101331.50;10577110;28;20475;-77
2024/02/10 14:17:09;;;;;;;7.97;3.47;;;;;;;18.90;100.00;101333.41;10592051;27;20121;-77
2024/02/10 14:22:34;;;;;;;7.57;3.42;;;;;;;18.77;100.00;101337.09;10604727;27;20498;-79
2024/02/10 14:27:58;;;;;;;7.47;3.53;;;;;;;18.62;100.00;101338.13;10619669;27;20065;-79
2024/02/10 14:33:25;;;;;;;8.20;3.63;;;;;;;18.43;100.00;101341.78;10605876;27;20111;-80
2024/02/10 14:38:59;;;;;;;8.15;3.30;;;;;;;18.36;100.00;101353.44;10606126;27;20518;-82
2024/02/10 14:44:21;;;;;;;8.40;3.47;;;;;;;18.14;100.00;101349.09;10576991;28;20058;-78
2024/02/10 14:49:46;;;;;;;8.10;3.65;;;;;;;18.05;100.00;101365.22;10562168;28;20082;-78
2024/02/10 14:55:12;;;;;;;7.80;3.47;;;;;;;17.99;100.00;101363.44;10593108;27;20031;-80
2024/02/10 15:00:34;;;;;;;8.25;3.72;;;;;;;17.86;100.00;101367.06;10610242;27;20054;-78
2024/02/10 15:05:58;;;;;;;7.90;3.47;;;;;;;17.86;100.00;101383.09;10614940;27;20075;-81
2024/02/10 15:11:22;;;;;;;4.88;2.92;;;;;;;17.69;100.00;101376.94;10598240;27;20043;-81
2024/02/10 15:16:45;;;;;;;7.78;3.92;;;;;;;17.56;100.00;101392.06;10537707;28;20204;-78
2024/02/10 15:22:08;;;;;;;8.65;3.95;;;;;;;17.42;100.00;101391.22;10547476;27;20044;-80
2024/02/10 15:27:34;;;;;;;8.73;3.75;;;;;;;17.25;100.00;101395.72;10523560;28;20043;-77
2024/02/10 15:32:56;;;;;;;7.10;3.83;;;;;;;17.22;100.00;101404.59;10544455;27;20039;-84
2024/02/10 15:38:23;;;;;;;6.25;3.92;;;;;;;16.98;100.00;101409.97;10570221;27;20047;-78
2024/02/10 15:43:47;;;;;;;10.10;4.13;;;;;;;16.88;100.00;101413.50;10538767;28;20408;-79
2024/02/10 15:49:10;;;;;;;7.03;3.95;;;;;;;16.79;100.00;101397.53;10537069;27;20087;-77
2024/02/10 15:54:32;;;;;;;10.40;3.95;;;;;;;16.65;100.00;101402.84;10543914;28;20052;-78
2024/02/10 15:59:56;;;;;;;8.30;3.92;;;;;;;16.47;100.00;101414.34;10512147;28;20047;-80
2024/02/10 16:05:19;;;;;;;6.82;4.35;;;;;;;16.41;100.00;101408.09;10522625;28;20060;-84
2024/02/10 16:10:45;;;;;;;6.03;3.95;;;;;;;16.31;100.00;101396.53;10514135;28;20046;-81
2024/02/10 16:16:12;;;;;;;6.43;4.15;;;;;;;16.26;100.00;101395.63;10565974;28;20054;-80
2024/02/10 16:21:35;;;;;;;8.25;3.55;;;;;;;16.18;100.00;101397.38;10557963;28;20811;-82
2024/02/10 16:26:57;;;;;;;6.38;3.10;;;;;;;16.20;100.00;101396.50;10549217;28;20047;-81
2024/02/10 16:32:22;;;;;;;8.68;4.05;;;;;;;16.22;100.00;101391.16;10573473;28;20070;-76
2024/02/10 16:37:47;;;;;;;6.53;3.45;;;;;;;16.17;100.00;101404.47;10560057;28;20047;-77
2024/02/10 16:43:10;;;;;;;6.55;3.67;;;;;;;16.16;100.00;101397.38;10565249;28;20054;-77
2024/02/10 16:48:36;;;;;;;7.85;4.00;;;;;;;16.08;100.00;101408.91;10580199;28;20062;-74
2024/02/10 16:54:05;;;;;;;10.50;4.10;;;;;;;16.12;100.00;101405.34;10558649;28;20054;-87
2024/02/10 16:59:28;;;;;;;8.57;4.30;;;;;;;16.07;100.00;101407.13;10552230;28;20039;-83
2024/02/10 17:04:53;;;;;;;9.50;4.25;;;;;;;16.01;100.00;101410.66;10553529;27;20040;-79
2024/02/10 17:10:15;;;;;;;9.07;4.15;;;;;;;15.99;100.00;101430.16;10558199;28;20546;-82
2024/02/10 17:15:39;;;;;;;7.78;4.25;;;;;;;16.08;100.00;101438.19;10544292;27;20052;-83
2024/02/10 17:21:03;;;;;;;6.57;3.50;;;;;;;16.01;100.00;101450.59;10511711;28;20048;-81
2024/02/10 17:26:25;;;;;;;7.53;4.32;;;;;;;15.96;100.00;101444.34;10556725;27;20130;-76
2024/02/10 17:31:50;;;;;;;8.27;4.13;;;;;;;15.94;100.00;101449.69;10512372;28;20048;-82
2024/02/10 17:37:14;;;;;;;7.10;3.85;;;;;;;15.92;100.00;101453.22;10508248;28;20134;-76
2024/02/10 17:42:38;;;;;;;7.38;3.97;;;;;;;15.89;100.00;101456.75;10527694;27;20065;-84
2024/02/10 17:48:00;;;;;;;6.28;3.60;;;;;;;15.94;100.00;101455.00;10532174;27;20048;-78
2024/02/10 17:53:26;;;;;;;8.50;4.10;;;;;;;15.98;100.00;101455.91;10522795;27;20052;-81
2024/02/10 17:58:49;;;;;;;10.27;3.95;;;;;;;15.95;100.00;101470.09;10521234;27;20565;-80
2024/02/10 18:04:14;;;;;;;7.35;3.97;;;;;;;15.92;100.00;101469.19;10532601;27;20135;-79
2024/02/10 18:09:39;;;;;;;6.07;3.58;;;;;;;15.93;100.00;101485.19;10558344;27;20051;-80
2024/02/10 18:15:01;;;;;;;11.13;4.47;;;;;;;15.94;100.00;101486.97;10582855;27;20044;-78
2024/02/10 18:20:28;;;;;;;9.18;3.72;;;;;;;16.00;100.00;101486.09;10550298;28;20047;-78
2024/02/10 18:25:55;;;;;;;10.93;4.32;;;;;;;15.99;100.00;101472.78;10541475;27;20051;-80
2024/02/10 18:31:18;;;;;;;5.05;3.67;;;;;;;16.09;100.00;101487.91;10527884;28;20052;-80
2024/02/10 18:36:42;;;;;;;6.57;4.38;;;;;;;16.03;100.00;101477.22;10559040;28;20123;-77
2024/02/10 18:42:06;;;;;;;10.82;3.88;;;;;;;16.00;100.00;101483.44;10540870;28;20055;-78
2024/02/10 18:47:29;;;;;;;7.50;4.47;;;;;;;15.97;100.00;101495.84;10520912;28;20044;-77
2024/02/10 18:52:52;;;;;;;8.95;4.43;;;;;;;16.08;100.00;101494.13;10546534;27;20035;-82
2024/02/10 18:58:16;;;;;;;6.78;3.90;;;;;;;16.22;100.00;101495.06;10545702;28;20043;-82
2024/02/10 19:03:39;;;;;;;7.80;4.82;;;;;;;16.30;100.00;101493.31;10540315;28;20070;-80
2024/02/10 19:09:03;;;;;;;6.90;3.92;;;;;;;16.33;100.00;101488.91;10529051;28;20055;-83
2024/02/10 19:14:27;;;;;;;6.97;4.00;;;;;;;16.42;100.00;101489.81;10568962;27;20084;-78
2024/02/10 19:19:49;;;;;;;7.95;4.30;;;;;;;16.52;100.00;101502.31;10606235;27;20487;-78
2024/02/10 19:25:15;;;;;;;5.85;4.20;;;;;;;16.40;100.00;101516.47;10578580;27;20054;-78
2024/02/10 19:30:40;;;;;;;14.35;4.40;;;;;;;16.43;100.00;101496.94;10584914;27;20053;-78
2024/02/10 19:36:02;;;;;;;6.07;3.88;;;;;;;16.51;100.00;101498.75;10586175;27;20043;-77
2024/02/10 19:41:25;;;;;;;10.32;5.60;;;;;;;16.41;100.00;101499.56;10588288;27;20051;-78
2024/02/10 19:46:50;;;;;;;12.40;5.00;;;;;;;16.41;100.00;101485.41;10575909;27;20131;-78
2024/02/10 19:52:13;;;;;;;7.30;3.80;;;;;;;16.33;100.00;101470.25;10592857;27;20050;-78
2024/02/10 19:57:39;;;;;;;8.38;3.72;;;;;;;16.28;100.00;101471.09;10597613;28;20043;-78
2024/02/10 20:03:04;;;;;;;7.05;3.72;;;;;;;16.31;100.00;101455.16;10604365;28;20106;-77
2024/02/10 20:08:27;;;;;;;7.90;3.92;;;;;;;16.38;100.00;101464.94;10600867;27;20051;-77
2024/02/10 20:13:50;;;;;;;8.93;4.65;;;;;;;16.38;100.00;101456.94;10598555;27;20579;-77
2024/02/10 20:19:15;;;;;;;9.27;4.43;;;;;;;16.32;100.00;101454.25;10594756;27;20093;-77
2024/02/10 20:24:38;;;;;;;9.98;4.15;;;;;;;16.34;100.00;101450.69;10564943;28;20046;-77
2024/02/10 20:30:00;;;;;;;8.07;4.00;;;;;;;16.30;100.00;101450.69;10577896;28;20055;-77
2024/02/10 20:35:25;;;;;;;12.20;4.72;;;;;;;16.30;100.00;101458.69;10548777;28;20048;-78
2024/02/10 20:40:47;;;;;;;6.65;3.83;;;;;;;16.33;100.00;101448.06;10566145;28;20048;-78
2024/02/10 20:46:10;;;;;;;5.85;3.97;;;;;;;16.38;100.00;101443.63;10586564;27;20066;-77
2024/02/10 20:51:37;;;;;;;8.15;4.15;;;;;;;16.33;100.00;101454.28;10608480;27;20452;-77
2024/02/10 20:57:01;;;;;;;10.95;4.35;;;;;;;16.18;100.00;101445.31;10582085;27;20051;-77
2024/02/10 21:02:27;;;;;;;8.70;4.05;;;;;;;16.20;100.00;101441.81;10568786;27;20055;-77
2024/02/10 21:07:51;;;;;;;9.10;4.18;;;;;;;16.11;100.00;101451.50;10557046;27;20399;-76
2024/02/10 21:13:16;;;;;;;5.90;3.35;;;;;;;16.16;100.00;101471.06;10607630;27;20059;-77
2024/02/10 21:18:39;;;;;;;8.65;4.25;;;;;;;16.12;100.00;101487.94;10592393;27;20074;-77
2024/02/10 21:24:03;;;;;;;7.82;4.10;;;;;;;15.96;100.00;101484.28;10592863;27;20035;-77
2024/02/10 21:29:25;;;;;;;9.98;4.03;;;;;;;15.89;100.00;101477.16;10578876;27;20043;-77
2024/02/10 21:34:48;;;;;;;7.00;4.47;;;;;;;16.01;100.00;101471.91;10572164;27;20498;-77
2024/02/10 21:40:14;;;;;;;6.03;3.35;;;;;;;16.05;100.00;101478.13;10539371;27;20043;-77
2024/02/10 21:45:37;;;;;;;8.05;4.05;;;;;;;15.88;100.00;101478.91;10563870;28;20120;-77
2024/02/10 21:51:00;;;;;;;7.53;4.35;;;;;;;15.80;100.00;101482.44;10563346;28;20135;-76
2024/02/10 21:56:25;;;;;;;10.25;4.60;;;;;;;15.85;100.00;101476.25;10524395;28;20159;-77
2024/02/10 22:01:50;;;;;;;8.23;3.95;;;;;;;15.74;100.00;101485.97;10558248;27;20478;-77
2024/02/10 22:07:13;;;;;;;7.35;3.47;;;;;;;15.75;100.00;101495.69;10572797;27;20116;-77
2024/02/10 22:12:37;;;;;;;12.02;3.88;;;;;;;15.77;100.00;101514.34;10562414;27;20062;-77
2024/02/10 22:18:00;;;;;;;8.73;3.78;;;;;;;15.83;100.00;101498.41;10591216;27;20043;-77
2024/02/10 22:23:23;;;;;;;28.20;16.08;;;;;;;15.93;100.00;101503.81;10539911;28;20109;-77
2024/02/10 22:28:47;;;;;;;9.50;4.90;;;;;;;15.74;100.00;101483.31;10534004;28;20047;-77
2024/02/10 22:34:10;;;;;;;12.40;8.02;;;;;;;15.68;100.00;101472.63;10575240;28;20419;-77
2024/02/10 22:39:38;;;;;;;13.32;8.10;;;;;;;15.74;100.00;101469.09;10576250;28;20051;-77
2024/02/10 22:45:02;;;;;;;18.33;9.00;;;;;;;15.69;100.00;101436.22;10576090;28;20104;-77
2024/02/10 22:50:25;;;;;;;11.90;3.70;;;;;;;15.59;100.00;101429.97;10587918;27;20047;-77
2024/02/10 22:55:47;;;;;;;7.18;3.30;;;;;;;15.88;100.00;101412.34;10594994;27;20051;-77
2024/02/10 23:01:12;;;;;;;6.85;3.40;;;;;;;15.86;100.00;101394.59;10544016;28;20099;-77
2024/02/10 23:06:36;;;;;;;8.98;3.58;;;;;;;16.01;100.00;101385.78;10554334;27;20052;-77
2024/02/10 23:12:00;;;;;;;8.13;3.58;;;;;;;16.13;100.00;101361.84;10574578;28;20055;-78
2024/02/10 23:17:24;;;;;;;11.52;3.08;;;;;;;16.32;100.00;101393.88;10559909;28;20116;-77
2024/02/10 23:22:47;;;;;;;6.68;3.03;;;;;;;16.34;100.00;101399.22;10560401;28;20047;-77
2024/02/10 23:28:14;;;;;;;7.55;3.85;;;;;;;16.13;100.00;101356.53;10574395;28;20075;-77
2024/02/10 23:33:38;;;;;;;7.80;3.43;;;;;;;16.26;100.00;101396.53;10559627;28;20079;-77
2024/02/10 23:39:01;;;;;;;6.10;3.40;;;;;;;16.26;100.00;101414.28;10544561;28;20043;-77
2024/02/10 23:44:25;;;;;;;6.75;3.30;;;;;;;16.28;100.00;101420.47;10559381;28;20062;-77
2024/02/10 23:49:53;;;;;;;6.10;2.80;;;;;;;16.35;100.00;101433.84;10573957;28;20058;-77
2024/02/10 23:55:16;;;;;;;8.95;4.43;;;;;;;16.47;100.00;101451.66;10558527;28;20081;-78
